Time;durP1;ratioP1;P1;durP2;ratioP2;P2;SDS_P1;SDS_P2;PMS_P1;PMS_P2;Temp;Humidity;BMP_temperature;BMP_pressure;BME280_temperature;BME280_humidity;BME280_pressure;Samples;Min_cycle;Max_cycle;Signal;HPM_P1;HPM_P2
2021/10/16 00:00:14;;;;;;;18.20;11.10;;;;;;;5.99;61.66;100873.75;1733982;80;21082;-58
2021/10/16 00:02:40;;;;;;;18.70;10.70;;;;;;;6.04;61.62;100868.65;1734082;80;21086;-55
2021/10/16 00:05:07;;;;;;;17.87;10.75;;;;;;;6.07;61.72;100866.31;1737303;80;21110;-56
2021/10/16 00:07:35;;;;;;;20.00;11.28;;;;;;;6.08;61.88;100858.88;1730903;80;21535;-57
2021/10/16 00:10:01;;;;;;;18.25;10.95;;;;;;;6.09;61.83;100861.41;1733809;80;21096;-57
2021/10/16 00:12:28;;;;;;;17.57;10.03;;;;;;;6.11;61.88;100865.24;1726211;80;21569;-57
2021/10/16 00:14:54;;;;;;;16.23;10.95;;;;;;;6.08;61.88;100862.31;1731975;80;21083;-57
2021/10/16 00:17:22;;;;;;;18.70;10.78;;;;;;;6.07;62.03;100854.56;1731846;80;21016;-57
2021/10/16 00:19:49;;;;;;;15.40;9.93;;;;;;;6.06;61.84;100851.59;1733282;80;21041;-57
2021/10/16 00:22:18;;;;;;;16.90;9.13;;;;;;;6.02;61.88;100846.99;1735287;80;21116;-57
2021/10/16 00:24:45;;;;;;;17.98;8.88;;;;;;;5.99;62.11;100835.87;1732468;80;21065;-56
2021/10/16 00:27:11;;;;;;;13.95;9.48;;;;;;;5.95;62.34;100831.21;1726768;80;21541;-56
2021/10/16 00:29:37;;;;;;;15.70;9.80;;;;;;;5.89;62.38;100833.70;1727206;80;21008;-56
2021/10/16 00:32:05;;;;;;;16.85;9.08;;;;;;;5.87;62.42;100836.03;1723893;80;21097;-56
2021/10/16 00:37:07;;;;;;;12.70;8.50;;;;;;;5.92;62.79;100832.71;1801881;78;22165;-57
2021/10/16 00:42:09;;;;;;;17.07;9.23;;;;;;;6.01;62.37;100836.63;1801811;77;22023;-58
2021/10/16 00:44:37;;;;;;;14.65;9.05;;;;;;;6.01;62.23;100840.06;1773169;80;21038;-57
2021/10/16 00:47:04;;;;;;;15.58;9.33;;;;;;;6.06;62.30;100838.05;1759903;80;21189;-57
2021/10/16 00:49:31;;;;;;;14.78;8.85;;;;;;;6.08;62.35;100830.13;1756416;81;21019;-57
2021/10/16 00:52:00;;;;;;;15.05;8.65;;;;;;;6.09;62.52;100827.91;1757766;80;21069;-58
2021/10/16 00:54:27;;;;;;;14.10;9.30;;;;;;;6.08;62.58;100827.05;1787203;80;20970;-57
2021/10/16 00:56:53;;;;;;;13.53;8.23;;;;;;;6.10;62.54;100825.66;1779026;80;21091;-58
2021/10/16 00:59:21;;;;;;;14.98;9.00;;;;;;;6.11;62.52;100821.66;1764698;80;21152;-57
2021/10/16 01:01:47;;;;;;;14.83;8.75;;;;;;;6.11;62.47;100816.44;1768962;80;21584;-58
2021/10/16 01:04:14;;;;;;;15.83;9.40;;;;;;;6.12;62.50;100817.30;1763805;80;21047;-57
2021/10/16 01:06:43;;;;;;;13.48;8.23;;;;;;;6.09;62.69;100819.60;1766872;80;21039;-57
2021/10/16 01:09:10;;;;;;;16.25;9.30;;;;;;;6.05;62.89;100827.68;1767997;80;21031;-57
2021/10/16 01:11:52;;;;;;;17.20;9.63;;;;;;;5.98;63.20;100827.17;1776757;80;21113;-57
2021/10/16 01:14:20;;;;;;;12.98;8.45;;;;;;;5.93;63.43;100825.23;1769956;78;21116;-56
2021/10/16 01:16:53;;;;;;;14.83;8.88;;;;;;;5.93;63.38;100815.66;1763597;80;22355;-56
2021/10/16 01:19:21;;;;;;;15.53;8.05;;;;;;;6.01;63.20;100806.11;1765193;78;21110;-57
2021/10/16 01:21:51;;;;;;;20.10;11.48;;;;;;;6.07;63.12;100809.70;1770397;80;21109;-56
2021/10/16 01:24:18;;;;;;;16.67;11.05;;;;;;;6.09;63.31;100811.77;1766368;78;21126;-57
2021/10/16 01:26:48;;;;;;;15.80;10.93;;;;;;;6.07;63.69;100807.09;1766437;79;21102;-57
2021/10/16 01:29:21;;;;;;;16.12;11.55;;;;;;;6.06;63.95;100814.53;1771338;78;21058;-56
2021/10/16 01:31:48;;;;;;;18.35;11.35;;;;;;;6.02;64.17;100811.73;1773292;78;21067;-56
2021/10/16 01:34:15;;;;;;;20.50;11.50;;;;;;;6.03;64.29;100818.62;1773820;78;21061;-57
2021/10/16 01:36:45;;;;;;;16.02;10.38;;;;;;;6.01;64.29;100811.80;1765707;80;21152;-58
2021/10/16 01:39:13;;;;;;;17.57;11.68;;;;;;;6.01;64.34;100802.66;1769589;78;21105;-57
2021/10/16 01:41:41;;;;;;;18.00;11.28;;;;;;;6.00;64.33;100808.36;1760814;80;21052;-58
2021/10/16 01:44:10;;;;;;;19.07;12.07;;;;;;;6.00;64.42;100803.58;1754740;80;21098;-58
2021/10/16 01:46:38;;;;;;;17.65;11.00;;;;;;;6.01;64.72;100799.58;1755439;81;21432;-58
2021/10/16 01:51:08;;;;;;;21.30;11.25;;;;;;;6.23;64.63;100791.88;1780556;79;21989;-57
2021/10/16 01:53:38;;;;;;;17.65;10.98;;;;;;;6.30;64.54;100794.08;1749110;80;20979;-57
2021/10/16 01:56:04;;;;;;;22.17;10.13;;;;;;;6.41;64.48;100796.08;1741798;81;21798;-56
2021/10/16 01:58:34;;;;;;;17.98;11.68;;;;;;;6.49;64.47;100796.49;1749911;80;21595;-56
2021/10/16 02:01:05;;;;;;;19.25;10.78;;;;;;;6.55;64.59;100793.16;1702453;81;21077;-57
2021/10/16 02:03:32;;;;;;;17.75;10.58;;;;;;;6.61;64.54;100791.51;1747716;80;21084;-57
2021/10/16 02:06:00;;;;;;;18.52;11.00;;;;;;;6.65;64.43;100784.69;1744608;80;20967;-57
2021/10/16 02:08:37;;;;;;;20.65;11.10;;;;;;;6.67;64.33;100786.77;1747363;80;21152;-57
2021/10/16 02:11:05;;;;;;;15.23;10.72;;;;;;;6.70;64.57;100789.19;1746396;80;21030;-57
2021/10/16 02:13:33;;;;;;;17.87;11.38;;;;;;;6.76;64.74;100785.39;1743365;80;21081;-57
2021/10/16 02:16:02;;;;;;;16.37;11.95;;;;;;;6.79;64.66;100786.53;1744168;80;21055;-58
2021/10/16 02:18:30;;;;;;;16.85;11.55;;;;;;;6.80;64.71;100782.97;1749619;80;21027;-59
2021/10/16 02:20:57;;;;;;;20.97;11.80;;;;;;;6.83;64.70;100777.56;1745388;80;21131;-57
2021/10/16 02:23:25;;;;;;;17.15;11.15;;;;;;;6.90;64.69;100779.35;1745727;80;21094;-57
2021/10/16 02:25:51;;;;;;;17.90;10.95;;;;;;;7.01;64.48;100775.66;1750141;80;21639;-57
2021/10/16 02:28:18;;;;;;;15.75;11.00;;;;;;;7.10;64.37;100775.57;1747222;80;21575;-57
2021/10/16 02:30:46;;;;;;;16.07;10.53;;;;;;;7.18;64.47;100777.27;1743588;80;21106;-57
2021/10/16 02:33:13;;;;;;;16.12;11.03;;;;;;;7.27;64.48;100782.41;1743510;80;22691;-58
2021/10/16 02:35:39;;;;;;;18.98;11.03;;;;;;;7.34;64.59;100777.66;1743348;80;21046;-58
2021/10/16 02:38:07;;;;;;;19.42;11.50;;;;;;;7.40;64.38;100775.98;1743932;80;21566;-57
2021/10/16 02:40:35;;;;;;;18.77;12.10;;;;;;;7.46;64.07;100779.52;1746992;80;21560;-57
2021/10/16 02:43:03;;;;;;;21.52;11.95;;;;;;;7.47;63.82;100777.29;1746748;80;21078;-57
2021/10/16 02:45:29;;;;;;;18.80;11.57;;;;;;;7.49;63.74;100781.95;1736496;80;21139;-57
2021/10/16 02:47:56;;;;;;;18.98;10.45;;;;;;;7.50;63.58;100781.03;1726868;81;21559;-57
2021/10/16 02:50:23;;;;;;;16.23;11.45;;;;;;;7.49;63.60;100780.65;1740732;80;21906;-57
2021/10/16 02:52:50;;;;;;;20.75;10.95;;;;;;;7.48;63.60;100776.81;1727355;80;21102;-57
2021/10/16 02:55:17;;;;;;;17.35;10.23;;;;;;;7.47;63.60;100769.91;1738884;81;21564;-57
2021/10/16 02:57:47;;;;;;;22.13;12.13;;;;;;;7.46;63.80;100775.59;1733903;80;21050;-58
2021/10/16 03:00:15;;;;;;;18.87;10.43;;;;;;;7.52;63.82;100775.23;1732006;80;20998;-57
2021/10/16 03:02:42;;;;;;;16.57;10.70;;;;;;;7.60;63.74;100769.06;1732233;80;21518;-57
2021/10/16 03:05:10;;;;;;;17.67;10.70;;;;;;;7.71;63.60;100774.94;1734988;81;21086;-57
2021/10/16 03:07:36;;;;;;;19.17;10.32;;;;;;;7.78;63.39;100772.78;1733223;80;21491;-57
2021/10/16 03:10:06;;;;;;;16.60;10.95;;;;;;;7.82;63.38;100766.42;1731891;81;21039;-57
2021/10/16 03:12:34;;;;;;;18.85;12.03;;;;;;;7.86;63.28;100756.11;1731380;80;21012;-56
2021/10/16 03:15:03;;;;;;;17.27;11.73;;;;;;;7.89;63.32;100757.72;1694364;83;21043;-56
2021/10/16 03:17:30;;;;;;;20.12;12.70;;;;;;;7.90;63.18;100758.06;1733008;80;21673;-55
2021/10/16 03:19:57;;;;;;;19.30;11.08;;;;;;;7.92;63.06;100764.91;1731155;81;21078;-56
2021/10/16 03:22:24;;;;;;;16.07;11.35;;;;;;;7.93;62.93;100760.02;1731106;81;21104;-56
2021/10/16 03:24:51;;;;;;;19.95;12.60;;;;;;;7.95;62.95;100765.17;1736314;80;21036;-56
2021/10/16 03:27:17;;;;;;;20.57;11.88;;;;;;;7.96;62.94;100766.38;1730977;81;21555;-56
2021/10/16 03:29:44;;;;;;;20.25;11.53;;;;;;;7.95;62.90;100763.41;1733583;80;20999;-58
2021/10/16 03:32:11;;;;;;;21.42;12.30;;;;;;;7.96;63.08;100765.08;1718856;81;21130;-58
2021/10/16 03:34:37;;;;;;;20.55;11.60;;;;;;;8.00;63.00;100765.72;1731330;80;21797;-58
2021/10/16 03:37:04;;;;;;;17.32;11.08;;;;;;;8.08;63.02;100762.63;1732262;81;21070;-58
2021/10/16 03:39:32;;;;;;;20.23;11.35;;;;;;;8.16;62.84;100760.36;1734516;80;21059;-58
2021/10/16 03:41:58;;;;;;;19.60;11.38;;;;;;;8.23;62.96;100762.13;1730998;81;21023;-58
2021/10/16 03:44:26;;;;;;;17.77;10.98;;;;;;;8.24;63.07;100762.02;1734714;80;21094;-58
2021/10/16 03:46:53;;;;;;;17.17;11.05;;;;;;;8.27;63.09;100763.14;1729407;81;21831;-58
2021/10/16 03:49:20;;;;;;;16.42;11.55;;;;;;;8.28;63.13;100760.88;1733022;80;21022;-58
2021/10/16 03:51:48;;;;;;;17.90;11.93;;;;;;;8.29;62.97;100763.88;1737722;82;21043;-58
2021/10/16 03:54:15;;;;;;;21.80;11.78;;;;;;;8.26;62.87;100759.31;1731347;80;21007;-58
2021/10/16 03:56:42;;;;;;;22.93;12.65;;;;;;;8.24;63.04;100763.78;1734699;80;21031;-58
2021/10/16 03:59:09;;;;;;;18.52;11.93;;;;;;;8.21;63.23;100764.84;1735891;80;21119;-58
2021/10/16 04:01:35;;;;;;;18.73;12.93;;;;;;;8.21;63.32;100760.91;1734911;81;21567;-58
2021/10/16 04:04:02;;;;;;;16.70;11.10;;;;;;;8.22;63.32;100766.53;1735854;80;21600;-58
2021/10/16 04:06:31;;;;;;;18.48;12.23;;;;;;;8.24;63.37;100759.85;1731369;81;21063;-56
2021/10/16 04:08:58;;;;;;;19.45;11.73;;;;;;;8.34;63.28;100758.34;1735966;80;21094;-56
2021/10/16 04:11:26;;;;;;;16.55;11.18;;;;;;;8.41;63.20;100762.24;1733144;81;21125;-56
2021/10/16 04:13:52;;;;;;;22.80;12.33;;;;;;;8.46;63.33;100759.36;1735143;80;21095;-56
2021/10/16 04:16:19;;;;;;;16.17;11.12;;;;;;;8.47;63.22;100760.58;1738254;80;21071;-56
2021/10/16 04:18:48;;;;;;;22.13;12.05;;;;;;;8.46;63.28;100758.88;1722567;82;21079;-57
2021/10/16 04:21:14;;;;;;;20.55;12.60;;;;;;;8.48;63.26;100764.03;1735381;81;21516;-57
2021/10/16 04:23:42;;;;;;;17.90;11.22;;;;;;;8.47;63.25;100761.89;1728853;80;21053;-58
2021/10/16 04:26:09;;;;;;;18.55;12.03;;;;;;;8.51;63.28;100765.98;1738874;80;21755;-57
2021/10/16 04:28:36;;;;;;;17.98;11.57;;;;;;;8.53;63.28;100771.12;1735997;80;21044;-57
2021/10/16 04:31:13;;;;;;;19.75;12.23;;;;;;;8.52;63.19;100769.43;1729769;81;21517;-57
2021/10/16 04:33:40;;;;;;;16.52;11.80;;;;;;;8.50;63.18;100763.45;1736913;80;21050;-57
2021/10/16 04:36:07;;;;;;;18.32;11.33;;;;;;;8.48;63.15;100757.47;1735475;81;21136;-57
2021/10/16 04:38:33;;;;;;;17.55;10.80;;;;;;;8.52;63.11;100755.01;1734465;80;21086;-57
2021/10/16 04:41:00;;;;;;;16.37;10.68;;;;;;;8.61;63.04;100753.55;1731649;81;21070;-57
2021/10/16 04:43:28;;;;;;;18.15;12.25;;;;;;;8.69;62.92;100759.14;1734362;80;20997;-57
2021/10/16 04:45:55;;;;;;;15.15;10.53;;;;;;;8.74;62.95;100757.91;1732731;81;21067;-58
2021/10/16 04:48:21;;;;;;;18.82;11.65;;;;;;;8.78;62.93;100753.78;1736601;80;21095;-58
2021/10/16 04:50:48;;;;;;;18.15;11.25;;;;;;;8.80;62.83;100755.34;1723500;81;21066;-57
2021/10/16 04:53:15;;;;;;;17.85;10.90;;;;;;;8.81;62.69;100755.72;1721021;80;21075;-57
2021/10/16 04:55:41;;;;;;;19.60;11.53;;;;;;;8.80;62.58;100757.13;1726791;80;21039;-58
2021/10/16 04:58:08;;;;;;;22.02;12.50;;;;;;;8.78;62.60;100751.16;1744554;80;21035;-57
2021/10/16 05:00:38;;;;;;;17.65;10.75;;;;;;;8.77;62.66;100753.40;1728836;81;21167;-58
2021/10/16 05:03:07;;;;;;;19.12;11.38;;;;;;;8.76;62.85;100743.84;1739660;80;21455;-58
2021/10/16 05:05:36;;;;;;;20.43;11.73;;;;;;;8.73;63.17;100746.20;1747022;80;20916;-58
2021/10/16 05:08:04;;;;;;;16.17;10.75;;;;;;;8.68;63.45;100738.63;1741239;81;21517;-57
2021/10/16 05:10:31;;;;;;;19.20;11.57;;;;;;;8.69;63.73;100741.64;1730591;80;21808;-58
2021/10/16 05:12:58;;;;;;;16.52;10.13;;;;;;;8.77;63.81;100741.11;1736923;80;21068;-58
2021/10/16 05:15:24;;;;;;;20.72;11.35;;;;;;;8.82;63.85;100748.20;1738421;80;20914;-58
2021/10/16 05:17:53;;;;;;;17.35;10.43;;;;;;;8.87;64.09;100758.40;1740662;80;21145;-58
2021/10/16 05:20:20;;;;;;;19.92;11.83;;;;;;;8.90;64.07;100759.03;1740899;80;21571;-58
2021/10/16 05:22:49;;;;;;;19.27;11.25;;;;;;;8.95;64.05;100758.73;1736337;80;21007;-58
2021/10/16 05:25:15;;;;;;;18.65;11.60;;;;;;;8.98;63.97;100767.72;1739876;80;21125;-58
2021/10/16 05:27:43;;;;;;;18.50;11.65;;;;;;;8.99;64.10;100760.67;1740520;80;21129;-58
2021/10/16 05:30:10;;;;;;;19.30;11.10;;;;;;;9.00;64.14;100752.70;1741389;80;21533;-58
2021/10/16 05:32:38;;;;;;;20.45;11.38;;;;;;;8.99;64.17;100740.98;1744121;80;21059;-58
2021/10/16 05:35:07;;;;;;;18.15;11.43;;;;;;;8.99;64.33;100745.75;1738307;80;21101;-58
2021/10/16 05:37:34;;;;;;;22.52;11.40;;;;;;;8.95;64.57;100742.98;1740563;80;21175;-57
2021/10/16 05:40:01;;;;;;;22.35;11.95;;;;;;;8.99;64.68;100745.75;1739185;80;21107;-58
2021/10/16 05:42:27;;;;;;;19.92;11.22;;;;;;;9.08;64.34;100747.77;1744356;80;21090;-58
2021/10/16 05:44:54;;;;;;;18.48;11.22;;;;;;;9.16;64.24;100752.96;1741374;80;21106;-58
2021/10/16 05:47:21;;;;;;;18.73;12.00;;;;;;;9.24;64.25;100745.41;1720465;81;21130;-58
2021/10/16 05:49:47;;;;;;;21.80;12.58;;;;;;;9.23;64.13;100742.40;1738410;80;21217;-57
2021/10/16 05:52:14;;;;;;;16.90;11.60;;;;;;;9.24;64.21;100741.47;1736205;80;21084;-58
2021/10/16 05:54:40;;;;;;;20.85;12.07;;;;;;;9.26;64.39;100742.20;1731142;80;21509;-59
2021/10/16 05:57:07;;;;;;;19.60;12.68;;;;;;;9.28;64.62;100750.83;1703854;81;21063;-58
2021/10/16 05:59:34;;;;;;;21.55;12.65;;;;;;;9.26;64.74;100755.33;1734939;80;21451;-57
2021/10/16 06:02:01;;;;;;;20.72;12.43;;;;;;;9.26;64.98;100756.63;1735989;81;21149;-57
2021/10/16 06:04:28;;;;;;;23.32;13.22;;;;;;;9.25;65.25;100764.16;1724140;81;21572;-57
2021/10/16 06:06:54;;;;;;;21.17;12.58;;;;;;;9.27;65.29;100762.27;1735285;80;21031;-57
2021/10/16 06:09:22;;;;;;;20.72;12.45;;;;;;;9.33;64.96;100755.30;1724202;81;21067;-56
2021/10/16 06:11:49;;;;;;;21.17;13.40;;;;;;;9.41;65.06;100750.80;1717094;80;21090;-57
2021/10/16 06:14:16;;;;;;;21.30;13.90;;;;;;;9.48;65.03;100753.36;1735086;81;21142;-57
2021/10/16 06:16:42;;;;;;;23.73;15.18;;;;;;;9.48;64.99;100752.05;1726525;80;21513;-57
2021/10/16 06:19:11;;;;;;;26.80;15.53;;;;;;;9.48;65.09;100748.97;1736970;82;21532;-58
2021/10/16 06:21:37;;;;;;;24.10;15.18;;;;;;;9.51;65.07;100758.89;1719191;82;21027;-59
2021/10/16 06:24:04;;;;;;;27.45;16.15;;;;;;;9.50;64.73;100755.44;1734406;81;21079;-58
2021/10/16 06:26:44;;;;;;;26.73;16.55;;;;;;;9.48;64.63;100754.22;1739922;80;21808;-58
2021/10/16 06:29:11;;;;;;;27.05;17.57;;;;;;;9.47;64.66;100756.95;1729329;81;20961;-58
2021/10/16 06:31:38;;;;;;;25.80;16.27;;;;;;;9.46;64.83;100755.27;1673036;84;21106;-58
2021/10/16 06:34:07;;;;;;;25.52;15.90;;;;;;;9.45;64.81;100753.60;1729592;81;21020;-58
2021/10/16 06:36:34;;;;;;;29.12;16.35;;;;;;;9.45;64.68;100755.75;1730102;81;21019;-58
2021/10/16 06:39:01;;;;;;;23.45;15.53;;;;;;;9.55;64.72;100750.70;1727419;80;21599;-57
2021/10/16 06:41:28;;;;;;;27.85;17.10;;;;;;;9.63;64.83;100749.69;1731698;81;21536;-57
2021/10/16 06:44:07;;;;;;;27.32;16.75;;;;;;;9.69;64.41;100745.78;1734907;82;21122;-56
2021/10/16 06:46:35;;;;;;;23.73;15.28;;;;;;;9.70;64.20;100745.30;1733300;81;21095;-56
2021/10/16 06:49:16;;;;;;;26.37;16.15;;;;;;;9.71;64.00;100743.05;1734149;81;21028;-56
2021/10/16 06:51:43;;;;;;;25.82;16.95;;;;;;;9.66;64.04;100744.67;1734460;80;21206;-56
2021/10/16 06:54:12;;;;;;;25.88;16.35;;;;;;;9.67;64.43;100735.86;1733345;81;21094;-56
2021/10/16 06:56:39;;;;;;;31.45;16.48;;;;;;;9.69;64.50;100741.84;1734320;81;21636;-58
2021/10/16 06:59:06;;;;;;;21.60;14.25;;;;;;;9.71;64.62;100746.50;1731579;80;21103;-58
2021/10/16 07:01:33;;;;;;;18.25;12.58;;;;;;;9.70;64.40;100757.98;1731195;81;21108;-58
2021/10/16 07:04:01;;;;;;;20.30;12.35;;;;;;;9.69;64.21;100754.98;1730772;80;21206;-58
2021/10/16 07:06:28;;;;;;;20.15;11.95;;;;;;;9.77;64.09;100758.39;1733457;80;21055;-58
2021/10/16 07:08:56;;;;;;;17.20;11.38;;;;;;;9.83;63.88;100754.86;1733659;80;21014;-58
2021/10/16 07:11:23;;;;;;;16.75;11.03;;;;;;;9.89;63.63;100759.31;1733116;82;21063;-58
2021/10/16 07:13:50;;;;;;;17.23;11.73;;;;;;;9.91;63.58;100762.66;1733394;80;21083;-58
2021/10/16 07:16:18;;;;;;;18.40;11.63;;;;;;;9.91;63.52;100765.29;1733477;81;21129;-58
2021/10/16 07:18:44;;;;;;;21.57;11.78;;;;;;;9.91;63.56;100763.49;1733447;80;21059;-58
2021/10/16 07:21:11;;;;;;;15.98;10.15;;;;;;;9.91;63.79;100758.72;1735280;81;21545;-58
2021/10/16 07:23:37;;;;;;;14.80;10.30;;;;;;;9.90;63.83;100761.83;1732964;80;21489;-58
2021/10/16 07:26:04;;;;;;;20.02;11.08;;;;;;;9.90;63.90;100755.27;1730924;82;21568;-58
2021/10/16 07:28:30;;;;;;;18.45;10.72;;;;;;;9.92;64.11;100752.04;1736462;80;21146;-57
2021/10/16 07:30:57;;;;;;;15.18;10.95;;;;;;;9.93;64.10;100755.02;1736460;80;21516;-58
2021/10/16 07:33:23;;;;;;;20.72;10.95;;;;;;;9.97;64.12;100764.83;1736546;80;21008;-58
2021/10/16 07:35:50;;;;;;;18.82;10.35;;;;;;;10.07;64.04;100765.87;1737193;81;21505;-58
2021/10/16 07:38:17;;;;;;;16.70;10.43;;;;;;;10.17;63.98;100771.29;1736619;80;21083;-58
2021/10/16 07:40:43;;;;;;;18.32;11.28;;;;;;;10.22;63.78;100770.03;1733717;80;21882;-58
2021/10/16 07:43:11;;;;;;;17.17;10.85;;;;;;;10.23;63.81;100763.80;1732715;80;21125;-58
2021/10/16 07:45:38;;;;;;;18.65;11.35;;;;;;;10.25;63.79;100759.74;1726639;81;21023;-57
2021/10/16 07:48:05;;;;;;;18.35;11.33;;;;;;;10.30;63.72;100756.79;1733717;81;21027;-58
2021/10/16 07:50:31;;;;;;;18.90;12.03;;;;;;;10.32;63.58;100754.45;1735139;82;21596;-58
2021/10/16 07:52:58;;;;;;;15.43;10.38;;;;;;;10.35;63.53;100755.52;1744470;80;21142;-57
2021/10/16 07:55:24;;;;;;;17.48;11.53;;;;;;;10.35;63.45;100748.12;1686743;84;22029;-58
2021/10/16 07:57:50;;;;;;;16.30;10.75;;;;;;;10.35;63.51;100742.86;1697944;83;21043;-58
2021/10/16 08:00:18;;;;;;;17.35;9.25;;;;;;;10.36;63.67;100731.39;1697354;83;21118;-57
2021/10/16 08:02:45;;;;;;;12.60;9.18;;;;;;;10.43;63.53;100743.62;1684662;83;21075;-57
2021/10/16 08:05:14;;;;;;;17.50;9.83;;;;;;;10.53;63.32;100748.08;1690110;84;21346;-58
2021/10/16 08:07:41;;;;;;;17.25;10.05;;;;;;;10.59;63.08;100743.68;1686522;83;21093;-58
2021/10/16 08:10:10;;;;;;;15.25;9.85;;;;;;;10.65;63.06;100740.23;1702262;83;21507;-57
2021/10/16 08:12:37;;;;;;;16.07;9.78;;;;;;;10.69;62.90;100740.34;1697611;82;21047;-57
2021/10/16 08:15:06;;;;;;;14.83;9.33;;;;;;;10.69;62.64;100746.48;1702279;83;21646;-57
2021/10/16 08:17:32;;;;;;;17.20;10.38;;;;;;;10.68;62.12;100765.01;1702738;82;21145;-57
2021/10/16 08:19:59;;;;;;;18.12;9.70;;;;;;;10.63;62.18;100771.09;1697149;83;21094;-57
2021/10/16 08:22:28;;;;;;;15.60;9.13;;;;;;;10.61;62.03;100775.16;1697014;82;21399;-58
2021/10/16 08:24:55;;;;;;;15.03;9.73;;;;;;;10.57;61.96;100766.65;1698171;83;21054;-58
2021/10/16 08:27:21;;;;;;;17.30;10.20;;;;;;;10.54;61.94;100771.27;1701314;82;21042;-58
2021/10/16 08:29:48;;;;;;;15.60;9.43;;;;;;;10.49;61.97;100766.83;1701211;83;21253;-58
2021/10/16 08:32:15;;;;;;;15.00;9.63;;;;;;;10.47;62.10;100764.79;1697030;82;21003;-58
2021/10/16 08:34:42;;;;;;;13.48;9.05;;;;;;;10.47;62.21;100766.94;1697853;83;21818;-57
2021/10/16 08:37:08;;;;;;;14.85;9.00;;;;;;;10.55;62.47;100756.69;1716806;82;21081;-58
2021/10/16 08:39:34;;;;;;;14.98;8.28;;;;;;;10.71;62.35;100758.20;1690972;83;22362;-58
2021/10/16 08:42:01;;;;;;;15.55;10.10;;;;;;;10.83;62.20;100759.91;1693066;82;21164;-58
2021/10/16 08:44:27;;;;;;;17.02;10.03;;;;;;;10.93;62.04;100758.25;1698239;83;21054;-58
2021/10/16 08:46:56;;;;;;;15.40;10.45;;;;;;;10.98;62.07;100753.97;1699529;82;21062;-58
2021/10/16 08:49:22;;;;;;;19.05;10.68;;;;;;;11.03;62.11;100761.49;1698777;83;21631;-57
2021/10/16 08:51:50;;;;;;;16.27;9.93;;;;;;;11.07;61.82;100764.27;1694551;83;21663;-57
2021/10/16 08:54:16;;;;;;;16.48;9.53;;;;;;;11.07;61.49;100755.05;1692554;83;21141;-57
2021/10/16 08:56:43;;;;;;;15.58;9.93;;;;;;;11.04;61.45;100760.55;1684401;83;21541;-57
2021/10/16 08:59:09;;;;;;;17.02;10.25;;;;;;;11.00;61.32;100757.80;1730161;80;21701;-57
2021/10/16 09:01:56;;;;;;;14.33;9.35;;;;;;;10.96;61.46;100754.53;1721677;80;21067;-57
2021/10/16 09:04:23;;;;;;;15.32;8.95;;;;;;;10.94;61.45;100750.73;1734016;81;21512;-57
2021/10/16 09:06:49;;;;;;;15.32;8.53;;;;;;;10.92;61.25;100746.52;1727258;80;21198;-57
2021/10/16 09:09:17;;;;;;;12.40;7.65;;;;;;;10.94;61.34;100736.25;1726054;80;21388;-58
2021/10/16 09:11:44;;;;;;;11.18;7.15;;;;;;;11.05;61.19;100734.59;1729323;80;21425;-57
2021/10/16 09:14:18;;;;;;;14.68;8.33;;;;;;;11.15;60.86;100740.34;1730529;81;21063;-57
2021/10/16 09:16:54;;;;;;;12.03;8.03;;;;;;;11.21;60.61;100744.77;1729960;80;22191;-57
2021/10/16 09:19:34;;;;;;;14.85;8.78;;;;;;;11.22;60.50;100744.66;1734228;81;21567;-57
2021/10/16 09:22:09;;;;;;;12.25;7.50;;;;;;;11.24;60.44;100736.64;1727316;80;21051;-57
2021/10/16 09:24:45;;;;;;;11.33;6.85;;;;;;;11.26;60.11;100729.45;1725699;81;21047;-57
2021/10/16 09:27:20;;;;;;;16.50;7.83;;;;;;;11.27;60.05;100732.45;1727801;80;21047;-57
2021/10/16 09:29:53;;;;;;;14.87;8.05;;;;;;;11.29;59.77;100741.91;1735922;81;21055;-57
2021/10/16 09:32:24;;;;;;;12.70;8.15;;;;;;;11.30;59.64;100749.34;1732008;80;21152;-57
2021/10/16 09:35:04;;;;;;;12.50;7.92;;;;;;;11.32;59.51;100748.26;1724243;81;21502;-57
2021/10/16 09:37:30;;;;;;;11.93;7.47;;;;;;;11.37;59.31;100751.86;1730163;80;21122;-58
2021/10/16 09:39:59;;;;;;;13.13;7.15;;;;;;;11.42;59.44;100748.87;1734742;80;21047;-56
2021/10/16 09:42:42;;;;;;;12.15;7.08;;;;;;;11.49;59.42;100752.70;1731798;80;21082;-57
2021/10/16 09:45:12;;;;;;;12.70;7.40;;;;;;;11.63;58.65;100752.93;1735568;80;21203;-57
2021/10/16 09:47:56;;;;;;;9.93;6.00;;;;;;;11.80;58.19;100755.09;1735802;80;21031;-56
2021/10/16 09:50:24;;;;;;;11.90;5.70;;;;;;;11.89;56.92;100744.28;1737824;81;21023;-58
2021/10/16 09:52:52;;;;;;;12.30;6.03;;;;;;;11.93;57.04;100737.00;1733969;80;21020;-57
2021/10/16 09:55:20;;;;;;;9.68;5.47;;;;;;;11.97;56.45;100744.55;1735909;81;21020;-57
2021/10/16 09:57:46;;;;;;;10.20;5.55;;;;;;;11.99;56.29;100739.16;1734366;80;21871;-57
2021/10/16 10:00:15;;;;;;;8.55;5.37;;;;;;;12.01;55.85;100739.37;1733274;81;21047;-58
2021/10/16 10:02:47;;;;;;;8.65;4.95;;;;;;;12.01;55.47;100738.05;1732667;80;21114;-57
2021/10/16 10:05:14;;;;;;;12.13;5.78;;;;;;;12.01;55.43;100739.86;1725318;81;21071;-58
2021/10/16 10:07:40;;;;;;;8.73;4.92;;;;;;;12.01;55.50;100730.14;1736099;80;20997;-58
2021/10/16 10:10:08;;;;;;;8.63;4.53;;;;;;;12.01;55.08;100735.41;1689517;82;22167;-59
2021/10/16 10:12:34;;;;;;;9.55;4.80;;;;;;;12.00;55.42;100723.20;1731650;80;21051;-58
2021/10/16 10:15:03;;;;;;;9.48;4.83;;;;;;;12.03;55.20;100725.57;1736034;82;21130;-59
2021/10/16 10:17:33;;;;;;;8.85;4.72;;;;;;;12.07;55.49;100730.97;1736447;80;21074;-59
2021/10/16 10:20:09;;;;;;;9.73;5.15;;;;;;;12.18;55.49;100735.36;1733541;80;21046;-58
2021/10/16 10:22:37;;;;;;;10.55;5.30;;;;;;;12.28;55.22;100720.95;1734547;80;21141;-57
2021/10/16 10:25:26;;;;;;;11.80;5.10;;;;;;;12.37;54.55;100724.17;1736771;81;21023;-58
2021/10/16 10:27:55;;;;;;;8.43;5.08;;;;;;;12.49;54.74;100716.18;1676807;83;21047;-58
2021/10/16 10:30:40;;;;;;;9.48;5.47;;;;;;;12.57;54.58;100719.85;1678477;83;21077;-59
2021/10/16 10:33:22;;;;;;;9.73;5.25;;;;;;;12.60;54.32;100721.41;1684146;83;21559;-58
2021/10/16 10:36:21;;;;;;;11.43;6.30;;;;;;;12.59;54.56;100712.67;1682968;84;21245;-57
2021/10/16 10:38:48;;;;;;;11.48;6.17;;;;;;;12.59;54.27;100702.56;1677866;83;21066;-57
2021/10/16 10:41:30;;;;;;;8.68;5.33;;;;;;;12.61;54.37;100702.81;1675881;83;21094;-58
2021/10/16 10:43:56;;;;;;;10.58;5.33;;;;;;;12.66;54.32;100697.15;1683452;83;21611;-59
2021/10/16 10:46:29;;;;;;;10.03;5.28;;;;;;;12.76;53.49;100703.33;1656433;84;21080;-58
2021/10/16 10:49:10;;;;;;;10.75;6.00;;;;;;;12.82;53.03;100700.15;1681536;83;21155;-57
2021/10/16 10:51:38;;;;;;;10.90;5.75;;;;;;;12.92;53.28;100693.61;1679711;83;21079;-57
2021/10/16 10:54:21;;;;;;;10.98;6.15;;;;;;;13.06;53.66;100684.50;1676115;83;21111;-57
2021/10/16 10:56:57;;;;;;;9.78;6.62;;;;;;;13.17;53.20;100680.95;1677778;84;21050;-58
2021/10/16 10:59:21;;;;;;;9.70;6.33;;;;;;;13.26;52.99;100683.28;1680234;83;21650;-58
2021/10/16 11:02:03;;;;;;;13.43;7.30;;;;;;;13.34;53.65;100668.95;1662179;84;21137;-58
2021/10/16 11:04:55;;;;;;;12.23;6.15;;;;;;;13.47;53.19;100675.33;1677303;84;21165;-57
2021/10/16 11:07:39;;;;;;;10.43;7.10;;;;;;;13.55;52.91;100662.28;1678389;83;21075;-58
2021/10/16 11:10:06;;;;;;;12.28;7.08;;;;;;;13.60;53.11;100664.03;1648825;85;21055;-58
2021/10/16 11:12:37;;;;;;;14.55;7.42;;;;;;;13.65;53.14;100668.89;1686817;83;21090;-58
2021/10/16 11:15:05;;;;;;;15.65;7.97;;;;;;;13.66;52.75;100670.08;1683826;84;21124;-57
2021/10/16 11:17:35;;;;;;;12.05;8.00;;;;;;;13.68;52.64;100672.09;1677481;83;21068;-58
2021/10/16 11:20:04;;;;;;;11.28;7.55;;;;;;;13.67;52.54;100663.00;1673574;83;21411;-58
2021/10/16 11:22:49;;;;;;;12.55;7.65;;;;;;;13.67;52.62;100666.97;1678513;83;21130;-58
2021/10/16 11:25:24;;;;;;;12.82;7.95;;;;;;;13.72;52.66;100669.55;1685193;84;21137;-57
2021/10/16 11:28:11;;;;;;;13.28;7.62;;;;;;;13.78;51.61;100669.47;1693751;82;21120;-59
2021/10/16 11:30:44;;;;;;;13.30;8.30;;;;;;;13.75;51.72;100668.42;1697111;82;21037;-58